地図

経路データ

SID SEASON NUMBER BASIN SUBBASIN NAME ISO_TIME NATURE LAT LON WMO_WIND WMO_PRES WMO_AGENCY TRACK_TYPE DIST2LAND LANDFALL IFLAG USA_AGENCY USA_ATCF_ID USA_LAT USA_LON USA_RECORD USA_STATUS USA_WIND USA_PRES USA_SSHS USA_R34_NE USA_R34_SE USA_R34_SW USA_R34_NW USA_R50_NE USA_R50_SE USA_R50_SW USA_R50_NW USA_R64_NE USA_R64_SE USA_R64_SW USA_R64_NW USA_POCI USA_ROCI USA_RMW USA_EYE TOKYO_LAT TOKYO_LON TOKYO_GRADE TOKYO_WIND TOKYO_PRES TOKYO_R50_DIR TOKYO_R50_LONG TOKYO_R50_SHORT TOKYO_R30_DIR TOKYO_R30_LONG TOKYO_R30_SHORT TOKYO_LAND CMA_LAT CMA_LON CMA_CAT CMA_WIND CMA_PRES HKO_LAT HKO_LON HKO_CAT HKO_WIND HKO_PRES NEWDELHI_LAT NEWDELHI_LON NEWDELHI_GRADE NEWDELHI_WIND NEWDELHI_PRES NEWDELHI_CI NEWDELHI_DP NEWDELHI_POCI REUNION_LAT REUNION_LON REUNION_TYPE REUNION_WIND REUNION_PRES REUNION_TNUM REUNION_CI REUNION_RMW REUNION_R34_NE REUNION_R34_SE REUNION_R34_SW REUNION_R34_NW REUNION_R50_NE REUNION_R50_SE REUNION_R50_SW REUNION_R50_NW REUNION_R64_NE REUNION_R64_SE REUNION_R64_SW REUNION_R64_NW BOM_LAT BOM_LON BOM_TYPE BOM_WIND BOM_PRES BOM_TNUM BOM_CI BOM_RMW BOM_R34_NE BOM_R34_SE BOM_R34_SW BOM_R34_NW BOM_R50_NE BOM_R50_SE BOM_R50_SW BOM_R50_NW BOM_R64_NE BOM_R64_SE BOM_R64_SW BOM_R64_NW BOM_ROCI BOM_POCI BOM_EYE BOM_POS_METHOD BOM_PRES_METHOD NADI_LAT NADI_LON NADI_CAT NADI_WIND NADI_PRES WELLINGTON_LAT WELLINGTON_LON WELLINGTON_WIND WELLINGTON_PRES DS824_LAT DS824_LON DS824_STAGE DS824_WIND DS824_PRES TD9636_LAT TD9636_LON TD9636_STAGE TD9636_WIND TD9636_PRES TD9635_LAT TD9635_LON TD9635_WIND TD9635_PRES TD9635_ROCI NEUMANN_LAT NEUMANN_LON NEUMANN_CLASS NEUMANN_WIND NEUMANN_PRES MLC_LAT MLC_LON MLC_CLASS MLC_WIND MLC_PRES USA_GUST BOM_GUST BOM_GUST_PER REUNION_GUST REUNION_GUST_PER USA_SEAHGT USA_SEARAD_NE USA_SEARAD_SE USA_SEARAD_SW USA_SEARAD_NW STORM_SPEED STORM_DIR
1952278N22140 1952 74 WP MM ROSE 1952-10-04 06:00:00 TS 22.0000 140.450 1006 tokyo main 1353 1329 _OO___________ -1 22.0000 140.500 2 1006 0 0 0 22.0000 140.400 1 29 1006 12 55
1952278N22140 1952 74 WP MM ROSE 1952-10-04 09:00:00 TS 22.3446 140.972 main 1339 1336 _PP___________ -1 22.6017 141.397 2 1003 0 0 22.0875 140.548 1 33 1003 5 229
1952278N22140 1952 74 WP MM ROSE 1952-10-04 12:00:00 TS 21.6400 140.010 1000 tokyo main 1380 1377 OOO______OOO__ jtwc_wp WP161952 20.2000 138.000 20 -1 23.0000 142.000 2 1000 0 0 0 22.2000 140.700 2 38 1000 20.2000 138.000 TC 20 20.2000 138.000 1 20 20.2000 138.000 20 1004 240 11 232
1952278N22140 1952 74 WP MM ROSE 1952-10-04 15:00:00 TS 21.6565 140.019 main 1369 1369 PPP______PPP__ WP161952 20.6330 138.574 20 -1 23.0744 142.113 2 999 0 0 22.3500 140.857 2 38 999 20.6330 138.574 TC 20 20.5042 138.491 1 20 20.6330 138.574 20 1003 210 0 55
1952278N22140 1952 74 WP MM ROSE 1952-10-04 18:00:00 TS 21.6724 140.042 998 tokyo main 1369 1369 OOO______OPO__ jtwc_wp WP161952 21.0000 139.100 20 -1 23.0000 142.000 2 998 0 0 0 22.5000 141.000 2 38 998 21.0000 139.100 TC 20 20.8162 138.977 1 20 21.0000 139.100 20 1003 180 2 58
1952278N22140 1952 74 WP MM ROSE 1952-10-04 21:00:00 TS 21.7566 140.196 main 1365 1357 PPP______PPP__ WP161952 21.2648 139.538 20 -1 23.0000 142.000 2 998 0 0 22.6000 141.115 2 38 998 21.2648 139.538 TC 20 21.1450 139.449 1 20 21.2648 139.538 20 1002 150 5 55
1952278N22140 1952 74 WP MM ROSE 1952-10-05 00:00:00 TS 21.9500 140.467 998 tokyo main 1353 1339 OOO______OOO__ jtwc_wp WP161952 21.5000 139.900 20 -1 23.0000 142.000 2 998 0 0 0 22.7000 141.200 2 38 998 21.5000 139.900 TC 20 21.5000 139.900 1 20 21.5000 139.900 20 1001 120 6 48
1952278N22140 1952 74 WP MM ROSE 1952-10-05 03:00:00 TS 22.1728 140.697 main 1339 1325 PPP______PPP__ WP161952 21.7698 140.200 20 -1 23.0000 142.000 2 997 0 0 22.8425 141.258 2 43 997 21.7698 140.200 TC 20 21.8847 140.322 1 21 21.7698 140.200 20 1000 180 6 41
1952278N22140 1952 74 WP MM ROSE 1952-10-05 06:00:00 TS 22.4300 140.917 996 tokyo main 1325 1302 OOO______OPO__ jtwc_wp WP161952 22.1000 140.500 20 -1 23.0000 142.000 2 996 0 0 0 23.0000 141.300 3 48 996 22.1000 140.500 TC 20 22.2798 140.704 1 22 22.1000 140.500 20 999 240 7 38
1952278N22140 1952 74 WP MM ROSE 1952-10-05 09:00:00 TS 22.7472 141.190 main 1306 1283 PPP______PPP__ WP161952 22.5577 140.922 22 -1 23.0000 142.000 2 996 0 0 23.1500 141.343 3 48 996 22.5577 140.922 TC 22 22.6599 141.035 1 23 22.5577 140.922 22 997 270 8 38
1952278N22140 1952 74 WP MM ROSE 1952-10-05 12:00:00 TS 23.0500 141.433 996 tokyo main 1273 1267 OOO______OOO__ jtwc_wp WP161952 23.0000 141.300 25 -1 23.0000 142.000 2 996 0 0 0 23.3000 141.400 3 48 996 23.0000 141.300 TC 25 23.0000 141.300 1 25 23.0000 141.300 25 995 300 6 35
1952278N22140 1952 74 WP MM ROSE 1952-10-05 15:00:00 TS 23.2569 141.583 main 1261 1251 PPP______PPP__ WP161952 23.2873 141.495 27 -1 22.9700 142.007 2 993 0 0 23.4500 141.500 3 53 993 23.2873 141.495 TC 27 23.2595 141.503 1 28 23.2873 141.495 27 992 300 4 30
1952278N22140 1952 74 WP MM ROSE 1952-10-05 18:00:00 TS 23.4299 141.674 990 tokyo main 1255 1235 OOO______OPO__ jtwc_wp WP161952 23.5000 141.600 30 -1 23.0000 142.000 2 990 0 0 0 23.6000 141.600 3 58 990 23.5000 141.600 TC 30 23.4795 141.641 1 32 23.5000 141.600 30 990 300 4 22
1952278N22140 1952 74 WP MM ROSE 1952-10-05 21:00:00 TS 23.6137 141.747 main 1235 1220 PPP______PPP__ WP161952 23.7000 141.708 35 0 23.1475 141.965 2 990 0 0 23.7500 141.658 3 58 989 23.7000 141.708 TC 35 23.6847 141.734 1 36 23.7000 141.708 35 987 330 4 17
1952278N22140 1952 74 WP MM ROSE 1952-10-06 00:00:00 TS 23.8167 141.800 990 tokyo main 1220 1200 OOO______OOO__ jtwc_wp WP161952 23.9000 141.800 40 0 23.4000 141.900 9 990 0 0 0 23.9000 141.700 3 58 988 23.9000 141.800 TC 40 23.9000 141.800 2 40 23.9000 141.800 40 985 360 5 13
1952278N22140 1952 74 WP MM ROSE 1952-10-06 03:00:00 TS 24.0587 141.854 main 1195 1175 PPP______PPP__ WP161952 24.1350 141.915 47 0 23.7200 141.763 9 988 0 0 24.0425 141.743 3 63 987 24.1350 141.915 TC 47 24.1849 141.876 2 47 24.1350 141.915 47 984 330 5 10
1952278N22140 1952 74 WP MM ROSE 1952-10-06 06:00:00 TS 24.3300 141.905 986 tokyo main 1175 1146 OOO______OPO__ jtwc_wp WP161952 24.4000 142.000 55 0 24.1000 141.700 9 986 0 0 0 24.2000 141.800 4 68 986 24.4000 142.000 TC 55 24.4799 141.930 2 55 24.4000 142.000 55 983 300 6 9
1952278N22140 1952 74 WP MM ROSE 1952-10-06 09:00:00 TS 24.6404 141.960 main 1151 1122 PPP______PPP__ WP161952 24.7225 142.008 62 0 24.5226 141.877 9 985 0 0 24.3925 141.892 4 72 985 24.7225 142.008 TC 62 24.7600 141.969 2 62 24.7225 142.008 62 978 270 6 10
1952278N22140 1952 74 WP MM ROSE 1952-10-06 12:00:00 TS 24.9167 142.017 985 tokyo main 1122 1106 OOO______OOO__ jtwc_wp WP161952 25.0000 142.000 70 1 24.9000 142.100 9 985 0 0 0 24.6000 142.000 4 77 985 25.0000 142.000 TC 70 25.0000 142.000 3 70 25.0000 142.000 70 973 240 5 14
1952278N22140 1952 74 WP MM ROSE 1952-10-06 15:00:00 TS 25.0826 142.081 main 1106 1095 PPP______PPP__ WP161952 25.1225 142.050 75 1 25.1525 142.180 9 985 0 0 24.8075 142.115 4 77 985 25.1225 142.050 TC 75 25.1681 142.040 3 72 25.1225 142.050 75 971 270 3 20
1952278N22140 1952 74 WP MM ROSE 1952-10-06 18:00:00 TS 25.1992 142.129 985 tokyo main 1095 1085 OOO______OPO__ jtwc_wp WP161952 25.2000 142.100 80 1 25.3000 142.200 9 985 0 0 0 25.0000 142.200 4 77 985 25.2000 142.100 TC 80 25.2950 142.073 3 75 25.2000 142.100 80 970 300 3 13
1952278N22140 1952 74 WP MM ROSE 1952-10-06 21:00:00 TS 25.3261 142.140 main 1085 1074 PPP______PPP__ WP161952 25.3425 142.108 80 1 25.3725 142.208 9 985 0 0 25.1575 142.215 4 77 985 25.3425 142.108 TC 80 25.3994 142.093 3 77 25.3425 142.108 80 969 330 3 0
1952278N22140 1952 74 WP MM ROSE 1952-10-07 00:00:00 TS 25.4500 142.133 985 tokyo main 1063 1052 OOO______OOO__ jtwc_wp WP161952 25.5000 142.100 80 1 25.4000 142.200 9 985 0 0 0 25.3000 142.200 4 77 985 25.5000 142.100 TC 80 25.5000 142.100 4 80 25.5000 142.100 80 969 360 3 0
1952278N22140 1952 74 WP MM ROSE 1952-10-07 03:00:00 TS 25.5809 142.137 main 1052 1042 PPP______PPP__ WP161952 25.6575 142.107 80 1 25.4425 142.207 9 985 0 0 25.4575 142.207 4 77 985 25.6575 142.107 TC 80 25.6128 142.085 4 77 25.6575 142.107 80 969 300 3 0
1952278N22140 1952 74 WP MM ROSE 1952-10-07 06:00:00 TS 25.7046 142.126 985 tokyo main 1042 1031 OOO______OPO__ jtwc_wp WP161952 25.8000 142.100 80 1 25.5000 142.200 9 985 0 0 0 25.6000 142.200 4 77 985 25.8000 142.100 TC 80 25.7275 142.058 4 75 25.8000 142.100 80 970 240 2 348
1952278N22140 1952 74 WP MM ROSE 1952-10-07 09:00:00 TS 25.8064 142.083 main 1031 1017 PPP______PPP__ WP161952 25.9000 142.050 75 1 25.5850 142.158 9 987 0 0 25.7000 142.165 4 77 985 25.9000 142.050 TC 75 25.8534 142.026 4 72 25.9000 142.050 75 971 240 2 339
1952278N22140 1952 74 WP MM ROSE 1952-10-07 12:00:00 TS 25.9167 142.033 990 tokyo main 1017 1007 OOO______OOO__ jtwc_wp WP161952 26.0000 142.000 70 1 25.7000 142.100 9 990 0 0 0 25.8000 142.100 4 77 985 26.0000 142.000 TC 70 26.0000 142.000 4 70 26.0000 142.000 70 972 240 3 344
1952278N22140 1952 74 WP MM ROSE 1952-10-07 15:00:00 TS 26.0583 142.003 main 996 985 PPP______PPP__ WP161952 26.1275 141.992 70 1 25.8350 142.057 9 990 0 0 25.9500 142.000 4 72 986 26.1275 141.992 TC 70 26.1825 141.985 4 68 26.1275 141.992 70 973 210 3 353
1952278N22140 1952 74 WP MM ROSE 1952-10-07 18:00:00 TS 26.2308 141.980 990 tokyo main 985 964 OOO______OPO__ jtwc_wp WP161952 26.3000 142.000 70 1 26.0000 142.000 9 990 0 0 0 26.1000 141.900 4 68 988 26.3000 142.000 TC 70 26.3850 141.978 4 67 26.3000 142.000 70 974 180 4 351
1952278N22140 1952 74 WP MM ROSE 1952-10-07 21:00:00 TS 26.4396 141.949 main 961 940 PPP______PPP__ WP161952 26.5500 141.993 67 1 26.2000 141.900 9 990 0 0 26.1925 141.835 4 68 988 26.5500 141.993 TC 67 26.5950 141.982 4 66 26.5500 141.993 67 975 180 4 355
1952278N22140 1952 74 WP MM ROSE 1952-10-08 00:00:00 TS 26.6500 141.933 990 tokyo main 929 919 OOO______OOO__ jtwc_wp WP161952 26.8000 142.000 65 1 26.4000 141.800 9 990 0 0 0 26.3000 141.800 4 68 989 26.8000 142.000 TC 65 26.8000 142.000 4 65 26.8000 142.000 65 976 180 4 357
1952278N22140 1952 74 WP MM ROSE 1952-10-08 03:00:00 TS 26.8039 141.940 main 919 901 PPP______PPP__ WP161952 26.9575 142.043 62 0 26.5275 141.705 9 989 0 0 26.4700 141.770 4 68 989 26.9575 142.043 TC 62 26.9538 142.040 4 63 26.9575 142.043 62 977 180 3 6
1952278N22140 1952 74 WP MM ROSE 1952-10-08 06:00:00 TS 26.9675 141.982 989 tokyo main 901 883 OOO______OPO__ jtwc_wp WP161952 27.1000 142.100 60 0 26.7000 141.700 9 989 0 0 0 26.7000 141.800 4 68 989 27.1000 142.100 TC 60 27.1050 142.092 4 62 27.1000 142.100 60 979 180 4 17
1952278N22140 1952 74 WP MM ROSE 1952-10-08 09:00:00 TS 27.1798 142.073 main 883 862 PPP______PPP__ WP161952 27.2625 142.150 60 0 27.0277 141.892 9 989 0 0 26.9851 141.950 4 68 989 27.2625 142.150 TC 60 27.2788 142.149 4 61 27.2625 142.150 60 980 180 5 19
1952278N22140 1952 74 WP MM ROSE 1952-10-08 12:00:00 TS 27.4500 142.167 990 tokyo main 853 821 OOO______OOO__ jtwc_wp WP161952 27.5000 142.200 60 0 27.4000 142.100 9 990 0 0 0 27.3000 142.100 4 68 990 27.5000 142.200 TC 60 27.5000 142.200 2 60 27.5000 142.200 60 982 180 6 11
1952278N22140 1952 74 WP MM ROSE 1952-10-08 15:00:00 TS 27.7950 142.210 main 821 789 PPP______PPP__ WP161952 27.8850 142.257 60 0 27.7075 142.130 9 990 0 0 27.6000 142.123 4 68 990 27.8850 142.257 TC 60 27.8078 142.232 2 58 27.8850 142.257 60 983 180 7 4
1952278N22140 1952 74 WP MM ROSE 1952-10-08 18:00:00 TS 28.1604 142.226 990 tokyo main 778 746 OOO______OPO__ jtwc_wp WP161952 28.3000 142.300 60 0 28.0000 142.100 9 990 0 0 0 27.9000 142.100 4 68 990 28.3000 142.300 TC 60 28.1625 142.258 2 57 28.3000 142.300 60 984 180 7 2
1952278N22140 1952 74 WP MM ROSE 1952-10-08 21:00:00 TS 28.4764 142.230 main 746 714 PPP______PPP__ WP161952 28.6150 142.300 57 0 28.3000 142.100 9 990 0 0 28.1775 142.100 4 68 990 28.6150 142.300 TC 57 28.5359 142.279 2 56 28.6150 142.300 57 985 180 6 1
1952278N22140 1952 74 WP MM ROSE 1952-10-09 00:00:00 TS 28.7833 142.233 990 tokyo main 714 682 OOO______OOO__ jtwc_wp WP161952 28.9000 142.300 55 0 28.6000 142.100 9 990 0 0 0 28.5000 142.100 4 68 990 28.9000 142.300 TC 55 28.9000 142.300 2 55 28.9000 142.300 55 986 180 6 2
1952278N22140 1952 74 WP MM ROSE 1952-10-09 03:00:00 TS 29.0878 142.247 main 682 653 PPP______PPP__ WP161952 29.2000 142.350 52 0 28.8775 142.100 9 993 0 0 28.9125 142.070 4 63 992 29.2000 142.350 TC 52 29.1367 142.259 2 53 29.2000 142.350 52 987 180 6 3
1952278N22140 1952 74 WP MM ROSE 1952-10-09 06:00:00 TS 29.4119 142.271 997 tokyo main 653 622 OOO______OPO__ jtwc_wp WP161952 29.5000 142.400 50 0 29.2000 142.100 9 997 0 0 0 29.4000 142.100 3 58 995 29.5000 142.400 TC 50 29.3717 142.228 2 52 29.5000 142.400 50 988 180 6 1
1952278N22140 1952 74 WP MM ROSE 1952-10-09 09:00:00 TS 29.7133 142.258 main 622 580 PPP______PPP__ WP161952 29.7174 142.356 50 0 29.5520 141.998 9 997 0 0 29.9048 142.226 3 58 995 29.7174 142.356 TC 50 29.6708 142.258 2 51 29.7174 142.356 50 988 180 8 6
1952278N22140 1952 74 WP MM ROSE 1952-10-09 12:00:00 TS 30.1667 142.367 998 tokyo main 573 516 OOO______OOO__ jtwc_wp WP161952 30.1000 142.400 50 0 30.1000 142.100 9 998 0 0 0 30.5000 142.500 3 58 995 30.1000 142.400 TC 50 30.1000 142.400 2 50 30.1000 142.400 50 989 180 13 17
1952278N22140 1952 74 WP MM ROSE 1952-10-09 15:00:00 TS 30.9456 142.707 main 516 459 PPP______PPP__ WP161952 30.8899 142.667 47 0 30.9979 142.671 9 996 0 0 31.2195 142.903 3 53 995 30.8899 142.667 TC 47 30.7862 142.665 2 47 30.8899 142.667 47 990 150 18 24
1952278N22140 1952 74 WP MM ROSE 1952-10-09 18:00:00 TS 31.8326 143.226 995 tokyo main 459 426 OOO______OPO__ jtwc_wp WP161952 31.8000 143.100 45 0 32.0000 143.500 9 995 0 0 0 32.0000 143.500 3 48 995 31.8000 143.100 TC 45 31.5958 143.058 2 45 31.8000 143.100 45 991 120 19 30
1952278N22140 1952 74 WP MM ROSE 1952-10-09 21:00:00 TS 32.6139 143.822 main 426 418 PPP______PPP__ WP161952 32.5445 143.583 42 0 32.8521 144.321 9 995 0 0 32.7652 144.290 3 48 995 32.5445 143.583 TC 42 32.4325 143.572 2 42 32.5445 143.583 42 991 90 19 37
1952278N22140 1952 74 WP MM ROSE 1952-10-10 00:00:00 TS 33.3167 144.533 995 tokyo main 424 424 OOO______OOO__ jtwc_wp WP161952 33.2000 144.200 40 0 33.6000 145.200 9 995 0 0 0 33.5000 145.200 3 48 995 33.2000 144.200 TC 40 33.2000 144.200 2 40 33.2000 144.200 40 992 60 18 44
1952278N22140 1952 74 WP MM ROSE 1952-10-10 03:00:00 TS 33.9274 145.318 main 448 448 PPP______PPP__ WP161952 33.7950 144.955 40 0 34.2061 146.059 9 995 0 0 34.1484 146.051 3 48 995 33.7950 144.955 TC 40 33.8247 144.930 2 38 33.7950 144.955 40 993 60 19 51
1952278N22140 1952 74 WP MM ROSE 1952-10-10 06:00:00 TS 34.5035 146.271 995 tokyo main 508 508 OOO______OPO__ jtwc_wp WP161952 34.3000 145.800 40 0 34.8000 147.000 9 995 0 0 0 34.8000 147.000 3 48 995 34.3000 145.800 TC 40 34.3234 145.740 2 37 34.3000 145.800 40 994 60 21 55
1952278N22140 1952 74 WP MM ROSE 1952-10-10 09:00:00 TS 35.1210 147.376 main 591 589 PPP______PPP__ WP161952 34.7234 146.651 37 0 35.5116 148.085 9 997 0 0 35.5197 148.142 3 43 997 34.7234 146.651 TC 37 34.7352 146.604 2 36 34.7234 146.651 37 994 90 24 55
1952278N22140 1952 74 WP MM ROSE 1952-10-10 12:00:00 TS 35.9000 148.733 1000 tokyo main 690 690 OOO______OOO__ jtwc_wp WP161952 35.1000 147.500 35 0 36.3000 149.300 2 1000 0 0 0 36.3000 149.400 2 38 1000 35.1000 147.500 TC 35 35.1000 147.500 2 35 35.1000 147.500 35 995 120 34 52
1952278N22140 1952 74 WP MM ROSE 1952-10-10 15:00:00 TS 37.1646 150.663 main 790 790 _PP___________ WP161952 -1 37.1649 150.634 2 1000 0 0 37.1643 150.692 2 38 1000 TC 2 33 51
1952278N22140 1952 74 WP MM ROSE 1952-10-10 18:00:00 MX 38.0000 152.000 1000 tokyo main 795 793 _OO___________ -1 38.0000 152.000 6 1000 0 0 0 38.0000 152.000 2 38 1000 2 26 53
1952278N22140 1952 74 WP MM ROSE 1952-10-10 21:00:00 MX 38.7151 153.290 main 822 798 _PP___________ -1 38.7241 153.304 6 1000 0 0 38.6971 153.263 2 38 1000 2 23 56
1952278N22140 1952 74 WP MM ROSE 1952-10-11 00:00:00 MX 39.3000 154.500 1000 tokyo main 802 796 _OO___________ -1 39.3000 154.500 6 1000 0 0 0 39.3000 154.500 2 38 1000 20 61
1952278N22140 1952 74 WP MM ROSE 1952-10-11 03:00:00 ET 39.6705 155.542 main 808 808 _P____________ -1 39.6705 155.542 6 1001 0 0 2 17 66
1952278N22140 1952 74 WP MM ROSE 1952-10-11 06:00:00 ET 40.0000 156.500 1002 tokyo main 832 830 _O____________ -1 40.0000 156.500 6 1002 0 0 0 17 61
1952278N22140 1952 74 WP MM ROSE 1952-10-11 09:00:00 ET 40.5150 157.536 main 842 840 _P____________ -1 40.5150 157.536 6 1003 0 0 18 57
1952278N22140 1952 74 WP MM ROSE 1952-10-11 12:00:00 ET 41.0000 158.500 1004 tokyo main 861 859 _O____________ -1 41.0000 158.500 6 1004 0 0 0 15 57
1952278N22140 1952 74 WP MM ROSE 1952-10-11 15:00:00 ET 41.3603 159.250 main 876 876 _P____________ -1 41.3603 159.250 6 1008 0 0 12 66
1952278N22140 1952 74 WP MM ROSE 1952-10-11 18:00:00 ET 41.5000 160.000 1012 tokyo main 921 921 _O____________ -1 41.5000 160.000 6 1012 0 0 0 13 93
1952278N22140 1952 74 WP MM ROSE 1952-10-11 21:00:00 ET 41.2875 160.967 main 1001 1001 _P____________ -1 41.2875 160.967 6 1013 0 0 16 108
1952278N22140 1952 74 WP MM ROSE 1952-10-12 00:00:00 ET 41.0000 162.000 1014 tokyo main 1088 1088 _O____________ -1 41.0000 162.000 6 1014 0 0 0 16 103
1952278N22140 1952 74 WP MM ROSE 1952-10-12 03:00:00 ET 40.9263 163.009 main 1164 1164 _P____________ -1 40.9263 163.009 6 1015 0 0 15 90
1952278N22140 1952 74 WP MM ROSE 1952-10-12 06:00:00 ET 41.0000 164.000 1016 tokyo main 1197 _O____________ -1 41.0000 164.000 6 1016 0 0 0 15 84

デジタル台風データ・検索

IBTrACS Databaseについて

本データベースは、米国NOAAが公開する1842年以降の世界の熱帯低気圧のベストトラックデータアーカイブInternational Best Track Archive for Climate Stewardship (IBTrACS)を、ウェブで閲覧しやすい形式に変換したものです。

最終更新日:2021-10-27